Terminal Aerodrome Forecast
Issued by NWS Billings, MT

Home | Current Version | Previous Version | Graphics & Text | Print | Product List | Glossary On
Versions: 1 2 3 4 5 6 7 8 9 10 11 12 13 14 15 16
000
FTUS45 KBYZ 211720
TAFMLS
TAF
KMLS 211720Z 2118/2218 VRB03KT P6SM BKN025 OVC070
     FM212100 16007KT P6SM BKN250
     FM220600 17007KT P6SM BKN100 WS017/28049KT
     FM221400 25015G25KT P6SM SCT100 BKN200=

USA.gov is the U.S. government's official web portal to all federal, state and local government web resources and services.